createdAt,value
2023-04-05T00:01:13.698Z,6.10
2023-04-05T00:03:41.238Z,6.10
2023-04-05T00:06:08.190Z,6.00
2023-04-05T00:08:34.857Z,6.00
2023-04-05T00:11:01.533Z,6.00
2023-04-05T00:13:28.232Z,6.00
2023-04-05T00:15:58.146Z,6.00
2023-04-05T00:18:25.773Z,5.90
2023-04-05T00:20:53.505Z,5.90
2023-04-05T00:23:25.600Z,5.90
2023-04-05T00:25:52.495Z,5.90
2023-04-05T00:28:19.219Z,5.90
2023-04-05T00:30:45.961Z,5.90
2023-04-05T00:33:13.770Z,5.80
2023-04-05T00:35:40.693Z,5.80
2023-04-05T00:38:07.559Z,5.80
2023-04-05T00:40:34.405Z,5.80
2023-04-05T00:43:01.114Z,5.70
2023-04-05T00:45:28.439Z,5.70
2023-04-05T00:47:55.947Z,5.70
2023-04-05T00:50:23.267Z,5.70
2023-04-05T00:52:50.861Z,5.60
2023-04-05T00:55:17.849Z,5.70
2023-04-05T00:57:45.229Z,5.60
2023-04-05T01:00:12.444Z,5.70
2023-04-05T01:02:48.493Z,5.60
2023-04-05T01:05:36.305Z,5.60
2023-04-05T01:08:17.990Z,5.60
2023-04-05T01:10:51.329Z,5.50
2023-04-05T01:13:18.042Z,5.40
2023-04-05T01:15:45.157Z,5.40
2023-04-05T01:18:13.966Z,5.40
2023-04-05T01:20:52.873Z,5.40
2023-04-05T01:23:59.791Z,5.40
2023-04-05T01:26:32.309Z,5.40
2023-04-05T01:29:17.707Z,5.40
2023-04-05T01:31:56.350Z,5.30
2023-04-05T01:34:44.737Z,5.30
2023-04-05T01:37:18.292Z,5.30
2023-04-05T01:39:50.708Z,5.30
2023-04-05T01:42:24.573Z,5.30
2023-04-05T01:44:55.469Z,5.20
2023-04-05T01:47:22.355Z,5.20
2023-04-05T01:49:49.114Z,5.20
2023-04-05T01:52:15.916Z,5.10
2023-04-05T01:54:42.603Z,5.10
2023-04-05T01:57:09.343Z,5.10
2023-04-05T01:59:36.194Z,5.10
2023-04-05T02:02:02.953Z,5.10
2023-04-05T02:04:29.661Z,5.10
2023-04-05T02:06:56.379Z,5.10
2023-04-05T02:09:23.045Z,5.00
2023-04-05T02:11:49.869Z,5.00
2023-04-05T02:14:17.164Z,5.00
2023-04-05T02:16:44.890Z,5.00
2023-04-05T02:19:13.187Z,5.00
2023-04-05T02:21:40.928Z,5.00
2023-04-05T02:24:08.018Z,4.90
2023-04-05T02:26:34.768Z,4.90
2023-04-05T02:29:01.485Z,4.90
2023-04-05T02:31:28.259Z,4.90
2023-04-05T02:33:56.041Z,4.80
2023-04-05T02:36:22.775Z,4.90
2023-04-05T02:38:49.621Z,4.90
2023-04-05T02:41:16.411Z,4.90
2023-04-05T02:43:43.169Z,4.80
2023-04-05T02:46:09.986Z,4.80
2023-04-05T02:48:37.286Z,4.80
2023-04-05T02:51:04.073Z,4.80
2023-04-05T02:53:31.049Z,4.70
2023-04-05T02:55:58.155Z,4.70
2023-04-05T02:58:24.913Z,4.70
2023-04-05T03:00:54.276Z,4.70
2023-04-05T03:03:22.388Z,4.60
2023-04-05T03:05:56.810Z,4.70
2023-04-05T03:08:23.667Z,4.60
2023-04-05T03:10:54.934Z,4.60
2023-04-05T03:13:21.605Z,4.60
2023-04-05T03:15:48.332Z,4.50
2023-04-05T03:18:16.540Z,4.50
2023-04-05T03:20:43.343Z,4.50
2023-04-05T03:23:10.465Z,4.50
2023-04-05T03:25:38.026Z,4.50
2023-04-05T03:28:06.413Z,4.50
2023-04-05T03:30:33.523Z,4.50
2023-04-05T03:33:04.388Z,4.50
2023-04-05T03:35:31.214Z,4.50
2023-04-05T03:37:57.937Z,4.40
2023-04-05T03:40:24.913Z,4.40
2023-04-05T03:42:51.869Z,4.40
2023-04-05T03:45:23.275Z,4.50
2023-04-05T03:47:51.307Z,4.40
2023-04-05T03:50:18.096Z,4.40
2023-04-05T03:52:45.151Z,4.40
2023-04-05T03:55:13.469Z,4.40
2023-04-05T03:57:41.690Z,4.30
2023-04-05T04:00:17.745Z,4.30
2023-04-05T04:02:46.219Z,4.30
2023-04-05T04:05:14.347Z,4.30
2023-04-05T04:07:42.741Z,4.30
2023-04-05T04:10:11.098Z,4.30
2023-04-05T04:12:38.298Z,4.30
2023-04-05T04:15:05.773Z,4.30
2023-04-05T04:17:35.550Z,4.20
2023-04-05T04:20:07.784Z,4.20
2023-04-05T04:22:38.761Z,4.10
2023-04-05T04:25:10.295Z,4.10
2023-04-05T04:27:46.728Z,4.10
2023-04-05T04:30:15.022Z,4.10
2023-04-05T04:32:55.361Z,4.10
2023-04-05T04:35:29.616Z,4.10
2023-04-05T04:37:58.353Z,4.00
2023-04-05T04:40:38.520Z,4.00
2023-04-05T04:43:10.498Z,4.00
2023-04-05T04:45:37.989Z,4.00
2023-04-05T04:48:05.281Z,4.00
2023-04-05T04:50:32.665Z,3.90
2023-04-05T04:53:01.773Z,3.90
2023-04-05T04:55:29.013Z,3.90
2023-04-05T04:57:56.322Z,3.90
2023-04-05T05:00:24.039Z,3.90
2023-04-05T05:02:52.528Z,3.90
2023-04-05T05:05:23.178Z,3.90
2023-04-05T05:07:50.677Z,3.90
2023-04-05T05:10:18.746Z,3.90
2023-04-05T05:12:45.637Z,3.90
2023-04-05T05:15:12.739Z,3.90
2023-04-05T05:17:39.697Z,3.90
2023-04-05T05:20:10.877Z,3.90
2023-04-05T05:22:38.776Z,3.80
2023-04-05T05:25:07.117Z,3.90
2023-04-05T05:27:33.997Z,3.90
2023-04-05T05:30:01.223Z,3.90
2023-04-05T05:32:28.067Z,3.90
2023-04-05T05:34:54.849Z,3.90
2023-04-05T05:37:29.782Z,3.90
2023-04-05T05:39:56.578Z,3.90
2023-04-05T05:42:23.721Z,3.90
2023-04-05T05:44:50.667Z,4.00
2023-04-05T05:47:17.379Z,4.00
2023-04-05T05:49:44.093Z,4.00
2023-04-05T05:52:11.060Z,4.10
2023-04-05T05:54:37.750Z,4.10
2023-04-05T05:57:05.011Z,4.10
2023-04-05T05:59:31.808Z,4.10
2023-04-05T06:01:58.652Z,4.20
2023-04-05T06:04:25.737Z,4.20
2023-04-05T06:06:52.528Z,4.30
2023-04-05T06:09:19.238Z,4.30
2023-04-05T06:11:55.938Z,4.40
2023-04-05T06:14:25.317Z,4.40
2023-04-05T06:16:52.294Z,4.50
2023-04-05T06:19:19.190Z,4.60
2023-04-05T06:21:45.894Z,4.60
2023-04-05T06:24:12.724Z,4.70
2023-04-05T06:26:39.484Z,4.80
2023-04-05T06:29:06.315Z,4.90
2023-04-05T06:31:35.602Z,5.00
2023-04-05T06:34:02.989Z,5.10
2023-04-05T06:36:34.169Z,5.20
2023-04-05T06:39:01.295Z,5.30
2023-04-05T06:41:28.206Z,5.40
2023-04-05T06:43:56.099Z,5.40
2023-04-05T06:46:23.648Z,5.50
2023-04-05T06:48:51.606Z,5.60
2023-04-05T06:51:19.865Z,5.70
2023-04-05T06:53:46.681Z,5.80
2023-04-05T06:56:13.535Z,5.90
2023-04-05T06:58:40.441Z,5.90
2023-04-05T07:01:07.574Z,6.00
2023-04-05T07:03:34.326Z,6.00
2023-04-05T07:06:01.620Z,6.10
2023-04-05T07:08:31.149Z,6.20
2023-04-05T07:10:58.178Z,6.20
2023-04-05T07:13:25.690Z,6.30
2023-04-05T07:15:59.429Z,6.40
2023-04-05T07:18:26.193Z,6.50
2023-04-05T07:20:54.731Z,6.60
2023-04-05T07:23:22.612Z,6.70
2023-04-05T07:25:50.138Z,6.80
2023-04-05T07:28:16.886Z,6.80
2023-04-05T07:30:43.885Z,6.90
2023-04-05T07:33:11.075Z,7.00
2023-04-05T07:35:37.856Z,7.00
2023-04-05T07:38:04.667Z,7.10
2023-04-05T07:40:31.481Z,7.20
2023-04-05T07:42:58.215Z,7.30
2023-04-05T07:45:25.311Z,7.40
2023-04-05T07:47:52.127Z,7.50
2023-04-05T07:50:18.997Z,7.60
2023-04-05T07:52:45.752Z,7.70
2023-04-05T07:55:12.505Z,7.80
2023-04-05T07:57:39.313Z,7.90
2023-04-05T08:00:12.098Z,8.00
2023-04-05T08:02:39.167Z,8.10
2023-04-05T08:05:06.311Z,8.20
2023-04-05T08:07:33.095Z,8.20
2023-04-05T08:10:00.196Z,8.30
2023-04-05T08:12:29.853Z,8.50
2023-04-05T08:14:56.573Z,8.50
2023-04-05T08:17:27.006Z,8.60
2023-04-05T08:19:54.476Z,8.70
2023-04-05T08:22:21.496Z,8.80
2023-04-05T08:24:48.240Z,8.90
2023-04-05T08:27:14.967Z,9.00
2023-04-05T08:29:41.747Z,9.10
2023-04-05T08:32:09.021Z,9.10
2023-04-05T08:34:36.098Z,9.20
2023-04-05T08:37:02.887Z,9.30
2023-04-05T08:39:29.843Z,9.40
2023-04-05T08:42:15.338Z,9.50
2023-04-05T08:44:44.197Z,9.50
2023-04-05T08:47:15.126Z,9.60
2023-04-05T08:49:45.988Z,9.70
2023-04-05T08:52:12.863Z,9.70
2023-04-05T08:54:39.660Z,9.90
2023-04-05T08:57:07.639Z,10.00
2023-04-05T08:59:38.038Z,10.00
2023-04-05T09:02:12.124Z,10.10
2023-04-05T09:04:45.145Z,10.10
2023-04-05T09:07:14.244Z,10.20
2023-04-05T09:09:46.344Z,10.30
2023-04-05T09:12:14.352Z,10.40
2023-04-05T09:14:41.565Z,10.40
2023-04-05T09:17:09.443Z,10.50
2023-04-05T09:19:36.307Z,10.60
2023-04-05T09:22:03.014Z,10.70
2023-04-05T09:24:43.331Z,10.70
2023-04-05T09:27:15.060Z,10.80
2023-04-05T09:29:51.602Z,10.80
2023-04-05T09:32:21.123Z,10.80
2023-04-05T09:34:48.194Z,10.90
2023-04-05T09:37:19.885Z,11.00
2023-04-05T09:39:47.412Z,11.00
2023-04-05T09:42:16.229Z,11.10
2023-04-05T09:44:57.056Z,11.20
2023-04-05T09:47:27.645Z,11.30
2023-04-05T09:49:54.633Z,11.40
2023-04-05T09:52:23.390Z,11.40
2023-04-05T09:54:53.110Z,11.50
2023-04-05T09:57:19.884Z,11.70
2023-04-05T09:59:47.705Z,11.80
2023-04-05T10:02:15.573Z,11.80
2023-04-05T10:04:44.727Z,11.80
2023-04-05T10:07:13.790Z,11.90
2023-04-05T10:09:41.597Z,11.90
2023-04-05T10:12:10.031Z,12.00
2023-04-05T10:14:37.601Z,12.10
2023-04-05T10:17:36.967Z,12.20
2023-04-05T10:20:14.117Z,12.20
2023-04-05T10:22:41.061Z,12.30
2023-04-05T10:25:29.914Z,12.30
2023-04-05T10:28:05.095Z,12.40
2023-04-05T10:30:38.265Z,12.50
2023-04-05T10:33:19.781Z,12.50
2023-04-05T10:35:55.496Z,12.50
2023-04-05T10:38:28.640Z,12.60
2023-04-05T10:41:02.482Z,12.70
2023-04-05T10:43:30.729Z,12.70
2023-04-05T10:45:59.178Z,12.80
2023-04-05T10:48:37.966Z,12.70
2023-04-05T10:51:05.629Z,12.80
2023-04-05T10:53:33.802Z,12.90
2023-04-05T10:56:02.034Z,13.00
2023-04-05T10:58:30.677Z,13.10
2023-04-05T11:00:57.959Z,13.20
2023-04-05T11:03:50.149Z,13.20
2023-04-05T11:06:28.927Z,13.30
2023-04-05T11:08:57.455Z,13.40
2023-04-05T11:11:25.190Z,13.50
2023-04-05T11:13:54.201Z,13.50
2023-04-05T11:16:21.806Z,13.60
2023-04-05T11:18:52.410Z,13.60
2023-04-05T11:21:22.415Z,13.60
2023-04-05T11:24:08.850Z,13.60
2023-04-05T11:26:54.948Z,13.60
2023-04-05T11:29:50.740Z,13.60
2023-04-05T11:32:17.959Z,13.70
2023-04-05T11:34:47.146Z,13.80
2023-04-05T11:37:16.013Z,13.90
2023-04-05T11:39:42.819Z,13.90
2023-04-05T11:42:13.025Z,13.90
2023-04-05T11:44:48.185Z,13.90
2023-04-05T11:47:21.549Z,13.90
2023-04-05T11:49:51.997Z,14.00
2023-04-05T11:52:20.827Z,14.00
2023-04-05T11:54:48.966Z,14.00
2023-04-05T11:57:23.571Z,14.10
2023-04-05T11:59:52.056Z,14.20
2023-04-05T12:02:19.521Z,14.30
2023-04-05T12:04:55.312Z,14.40
2023-04-05T12:07:25.266Z,14.60
2023-04-05T12:10:13.761Z,14.70
2023-04-05T12:12:43.580Z,14.90
2023-04-05T12:15:14.496Z,14.90
2023-04-05T12:17:47.150Z,15.00
2023-04-05T12:20:19.479Z,15.00
2023-04-05T12:22:48.744Z,15.00
2023-04-05T12:25:16.693Z,14.90
2023-04-05T12:27:43.966Z,14.70
2023-04-05T12:30:21.273Z,14.70
2023-04-05T12:32:50.589Z,14.70
2023-04-05T12:35:35.128Z,14.80
2023-04-05T12:38:05.714Z,14.80
2023-04-05T12:40:34.862Z,14.80
2023-04-05T12:43:06.430Z,14.80
2023-04-05T12:45:40.342Z,14.90
2023-04-05T12:48:13.083Z,15.00
2023-04-05T12:50:48.652Z,15.00
2023-04-05T12:53:21.391Z,15.00
2023-04-05T12:55:52.682Z,15.10
2023-04-05T12:58:32.233Z,15.20
2023-04-05T13:03:27.105Z,15.30
2023-04-05T13:05:54.050Z,15.40
2023-04-05T13:08:20.871Z,15.50
2023-04-05T13:10:49.382Z,15.60
2023-04-05T13:13:17.429Z,15.60
2023-04-05T13:15:45.385Z,15.70
2023-04-05T13:18:14.799Z,15.70
2023-04-05T13:20:44.804Z,15.70
2023-04-05T13:23:12.826Z,15.70
2023-04-05T13:25:40.610Z,15.70
2023-04-05T13:28:07.961Z,15.70
2023-04-05T13:30:34.793Z,15.70
2023-04-05T13:33:01.686Z,15.70
2023-04-05T13:35:28.593Z,15.70
2023-04-05T13:37:55.702Z,15.80
2023-04-05T13:40:22.473Z,15.90
2023-04-05T13:42:49.262Z,15.90
2023-04-05T13:45:16.136Z,15.90
2023-04-05T13:47:43.198Z,15.90
2023-04-05T13:50:10.237Z,16.00
2023-04-05T13:52:37.654Z,16.10
2023-04-05T13:55:04.977Z,16.10
2023-04-05T13:57:32.216Z,16.20
2023-04-05T13:59:59.066Z,16.20
2023-04-05T14:02:27.109Z,16.20
2023-04-05T14:04:54.368Z,16.20
2023-04-05T14:07:21.942Z,16.10
2023-04-05T14:09:48.831Z,16.10
2023-04-05T14:12:15.627Z,16.10
2023-04-05T14:14:42.452Z,16.20
2023-04-05T14:17:11.481Z,16.20
2023-04-05T14:19:39.229Z,16.30
2023-04-05T14:22:06.009Z,16.40
2023-04-05T14:24:32.788Z,16.50
2023-04-05T14:26:59.496Z,16.50
2023-04-05T14:29:26.846Z,16.50
2023-04-05T14:31:56.115Z,16.50
2023-04-05T14:34:23.005Z,16.40
2023-04-05T14:36:49.860Z,16.40
2023-04-05T14:39:16.634Z,16.30
2023-04-05T14:41:45.850Z,16.30
2023-04-05T14:44:12.588Z,16.30
2023-04-05T14:46:39.322Z,16.30
2023-04-05T14:49:06.112Z,16.20
2023-04-05T14:51:32.827Z,16.20
2023-04-05T14:53:59.583Z,16.30
2023-04-05T14:56:26.391Z,16.30
2023-04-05T14:58:53.310Z,16.20
2023-04-05T15:01:20.184Z,16.20
2023-04-05T15:03:48.333Z,16.20
2023-04-05T15:06:16.302Z,16.20
2023-04-05T15:08:43.076Z,16.30
2023-04-05T15:11:09.879Z,16.30
2023-04-05T15:13:36.789Z,16.40
2023-04-05T15:16:03.643Z,16.40
2023-04-05T15:18:30.402Z,16.40
2023-04-05T15:20:57.341Z,16.50
2023-04-05T15:23:24.264Z,16.50
2023-04-05T15:25:51.061Z,16.50
2023-04-05T15:28:17.808Z,16.40
2023-04-05T15:30:45.839Z,16.20
2023-04-05T15:33:12.591Z,16.10
2023-04-05T15:35:39.399Z,15.90
2023-04-05T15:38:06.427Z,15.60
2023-04-05T15:40:33.243Z,15.50
2023-04-05T15:43:00.207Z,15.30
2023-04-05T15:45:27.132Z,15.20
2023-04-05T15:47:53.923Z,15.10
2023-04-05T15:50:21.736Z,15.00
2023-04-05T15:52:48.568Z,14.80
2023-04-05T15:55:15.505Z,14.70
2023-04-05T15:57:42.297Z,14.50
2023-04-05T16:00:09.688Z,14.50
2023-04-05T16:02:38.008Z,14.40
2023-04-05T16:05:05.285Z,14.30
2023-04-05T16:07:32.032Z,14.20
2023-04-05T16:09:58.864Z,14.10
2023-04-05T16:12:25.844Z,14.10
2023-04-05T16:14:52.612Z,14.00
2023-04-05T16:17:19.520Z,13.90
2023-04-05T16:19:46.306Z,13.90
2023-04-05T16:22:13.285Z,13.80
2023-04-05T16:24:40.106Z,13.80
2023-04-05T16:27:06.867Z,13.70
2023-04-05T16:29:33.582Z,13.70
2023-04-05T16:32:00.588Z,13.60
2023-04-05T16:34:27.537Z,13.60
2023-04-05T16:36:54.285Z,13.60
2023-04-05T16:39:21.002Z,13.50
2023-04-05T16:41:47.766Z,13.50
2023-04-05T16:44:14.521Z,13.50
2023-04-05T16:46:41.331Z,13.50
2023-04-05T16:49:08.144Z,13.50
2023-04-05T16:51:36.271Z,13.50
2023-04-05T16:54:03.334Z,13.50
2023-04-05T16:56:30.446Z,13.40
2023-04-05T16:58:57.607Z,13.40
2023-04-05T17:01:24.660Z,13.20
2023-04-05T17:03:51.475Z,13.20
2023-04-05T17:06:18.245Z,13.10
2023-04-05T17:08:44.973Z,13.10
2023-04-05T17:11:11.799Z,13.10
2023-04-05T17:13:38.650Z,13.10
2023-04-05T17:16:05.699Z,13.00
2023-04-05T17:18:32.576Z,13.00
2023-04-05T17:20:59.321Z,12.90
2023-04-05T17:23:26.089Z,12.90
2023-04-05T17:25:52.869Z,12.80
2023-04-05T17:28:19.659Z,12.80
2023-04-05T17:30:46.776Z,12.70
2023-04-05T17:33:13.581Z,12.70
2023-04-05T17:35:40.414Z,12.60
2023-04-05T17:38:07.229Z,12.60
2023-04-05T17:40:34.020Z,12.50
2023-04-05T17:43:00.853Z,12.50
2023-04-05T17:45:28.513Z,12.40
2023-04-05T17:47:55.402Z,12.30
2023-04-05T17:50:24.436Z,12.20
2023-04-05T17:52:51.653Z,12.10
2023-04-05T17:55:18.388Z,12.00
2023-04-05T17:57:45.147Z,12.00
2023-04-05T18:00:12.635Z,11.90
2023-04-05T18:02:40.788Z,11.90
2023-04-05T18:05:08.357Z,11.80
2023-04-05T18:07:36.927Z,11.70
2023-04-05T18:10:07.607Z,11.70
2023-04-05T18:12:34.792Z,11.60
2023-04-05T18:15:01.564Z,11.60
2023-04-05T18:17:28.467Z,11.50
2023-04-05T18:19:55.338Z,11.40
2023-04-05T18:22:22.270Z,11.30
2023-04-05T18:24:49.066Z,11.20
2023-04-05T18:27:16.025Z,11.10
2023-04-05T18:29:42.854Z,11.00
2023-04-05T18:32:09.912Z,10.90
2023-04-05T18:34:36.804Z,10.80
2023-04-05T18:37:04.097Z,10.70
2023-04-05T18:39:30.855Z,10.70
2023-04-05T18:41:57.656Z,10.60
2023-04-05T18:44:24.456Z,10.50
2023-04-05T18:46:51.500Z,10.50
2023-04-05T18:49:19.134Z,10.50
2023-04-05T18:51:46.258Z,10.50
2023-04-05T18:54:13.914Z,10.40
2023-04-05T18:56:41.028Z,10.40
2023-04-05T18:59:08.185Z,10.40
2023-04-05T19:01:35.601Z,10.40
2023-04-05T19:04:02.464Z,10.30
2023-04-05T19:06:29.950Z,10.30
2023-04-05T19:08:56.726Z,10.30
2023-04-05T19:11:23.521Z,10.30
2023-04-05T19:13:50.768Z,10.20
2023-04-05T19:16:17.827Z,10.20
2023-04-05T19:18:44.837Z,10.20
2023-04-05T19:21:11.696Z,10.10
2023-04-05T19:23:38.799Z,10.10
2023-04-05T19:26:05.801Z,10.10
2023-04-05T19:28:32.529Z,10.00
2023-04-05T19:30:59.373Z,10.00
2023-04-05T19:33:26.259Z,10.00
2023-04-05T19:35:53.076Z,9.90
2023-04-05T19:38:22.920Z,9.90
2023-04-05T19:40:49.786Z,9.90
2023-04-05T19:43:17.617Z,9.80
2023-04-05T19:45:44.607Z,9.80
2023-04-05T19:48:39.952Z,9.80
2023-04-05T19:51:11.589Z,9.70
2023-04-05T19:53:48.063Z,9.70
2023-04-05T19:56:18.486Z,9.70
2023-04-05T19:58:46.808Z,9.60
2023-04-05T20:01:32.466Z,9.60
2023-04-05T20:03:59.853Z,9.50
2023-04-05T20:06:27.946Z,9.50
2023-04-05T20:09:01.638Z,9.50
2023-04-05T20:11:28.547Z,9.50
2023-04-05T20:13:57.080Z,9.50
2023-04-05T20:16:28.066Z,9.50
2023-04-05T20:19:03.223Z,9.50
2023-04-05T20:21:30.968Z,9.40
2023-04-05T20:23:58.340Z,9.40
2023-04-05T20:26:31.177Z,9.40
2023-04-05T20:29:01.058Z,9.30
2023-04-05T20:31:31.850Z,9.30
2023-04-05T20:34:04.312Z,9.20
2023-04-05T20:36:33.205Z,9.20
2023-04-05T20:39:01.411Z,9.20
2023-04-05T20:41:28.606Z,9.20
2023-04-05T20:43:56.546Z,9.10
2023-04-05T20:46:24.080Z,9.10
2023-04-05T20:48:51.128Z,9.10
2023-04-05T20:51:17.993Z,9.10
2023-04-05T20:53:44.702Z,9.10
2023-04-05T20:56:12.098Z,9.10
2023-04-05T20:58:40.629Z,9.00
2023-04-05T21:01:08.372Z,9.00
2023-04-05T21:03:38.350Z,9.00
2023-04-05T21:06:08.111Z,9.00
2023-04-05T21:08:36.302Z,8.90
2023-04-05T21:11:03.291Z,8.90
2023-04-05T21:13:30.312Z,8.80
2023-04-05T21:15:57.916Z,8.80
2023-04-05T21:18:25.611Z,8.80
2023-04-05T21:20:53.388Z,8.80
2023-04-05T21:23:22.519Z,8.70
2023-04-05T21:25:49.950Z,8.70
2023-04-05T21:28:16.821Z,8.70
2023-04-05T21:30:44.468Z,8.60
2023-04-05T21:33:12.093Z,8.60
2023-04-05T21:35:39.237Z,8.60
2023-04-05T21:38:06.449Z,8.60
2023-04-05T21:40:33.400Z,8.50
2023-04-05T21:43:00.802Z,8.50
2023-04-05T21:45:27.662Z,8.50
2023-04-05T21:47:54.941Z,8.50
2023-04-05T21:50:21.840Z,8.50
2023-04-05T21:52:48.683Z,8.50
2023-04-05T21:55:15.805Z,8.50
2023-04-05T21:57:42.607Z,8.50
2023-04-05T22:00:12.584Z,8.40
2023-04-05T22:02:39.796Z,8.50
2023-04-05T22:05:07.833Z,8.50
2023-04-05T22:07:35.876Z,8.50
2023-04-05T22:10:02.982Z,8.50
2023-04-05T22:12:29.874Z,8.50
2023-04-05T22:14:56.738Z,8.50
2023-04-05T22:17:23.655Z,8.50
2023-04-05T22:19:50.564Z,8.50
2023-04-05T22:22:17.713Z,8.50
2023-04-05T22:24:44.958Z,8.50
2023-04-05T22:27:12.352Z,8.50
2023-04-05T22:29:39.591Z,8.40
2023-04-05T22:32:07.021Z,8.40
2023-04-05T22:34:33.906Z,8.50
2023-04-05T22:37:01.023Z,8.40
2023-04-05T22:39:27.872Z,8.40
2023-04-05T22:41:55.065Z,8.50
2023-04-05T22:44:22.069Z,8.40
2023-04-05T22:46:48.816Z,8.40
2023-04-05T22:49:15.559Z,8.40
2023-04-05T22:51:42.288Z,8.40
2023-04-05T22:54:09.067Z,8.40
2023-04-05T22:56:36.015Z,8.40
2023-04-05T22:59:02.751Z,8.40
2023-04-05T23:01:29.544Z,8.40
2023-04-05T23:03:56.506Z,8.40
2023-04-05T23:06:23.337Z,8.30
2023-04-05T23:08:50.443Z,8.30
2023-04-05T23:11:17.195Z,8.30
2023-04-05T23:13:44.142Z,8.30
2023-04-05T23:16:10.936Z,8.30
2023-04-05T23:18:37.748Z,8.30
2023-04-05T23:21:04.712Z,8.20
2023-04-05T23:23:31.455Z,8.20
2023-04-05T23:25:58.200Z,8.20
2023-04-05T23:28:24.891Z,8.20
2023-04-05T23:30:51.681Z,8.20
2023-04-05T23:33:18.426Z,8.10
2023-04-05T23:35:45.841Z,8.20
2023-04-05T23:38:12.658Z,8.10
2023-04-05T23:40:39.416Z,8.10
2023-04-05T23:43:06.432Z,8.10
2023-04-05T23:45:33.161Z,8.10
2023-04-05T23:47:59.970Z,8.10
2023-04-05T23:50:26.775Z,8.10
2023-04-05T23:52:53.563Z,8.10
2023-04-05T23:55:21.483Z,8.00
2023-04-05T23:57:48.358Z,8.10
